Time;durP1;ratioP1;P1;durP2;ratioP2;P2;SDS_P1;SDS_P2;PMS_P1;PMS_P2;Temp;Humidity;BMP_temperature;BMP_pressure;BME280_temperature;BME280_humidity;BME280_pressure;Samples;Min_cycle;Max_cycle;Signal;HPM_P1;HPM_P2
2023/12/06 00:00:50;;;;;;;84.53;34.80;;;;;;;;;;5036962;28;20222;-68
2023/12/06 00:03:16;;;;;;;85.67;36.70;;;;;;;;;;5037352;28;20190;-68
2023/12/06 00:05:42;;;;;;;83.40;39.20;;;;;;;;;;5040866;28;20175;-68
2023/12/06 00:08:08;;;;;;;89.17;37.77;;;;;;;;;;5039604;28;20656;-69
2023/12/06 00:10:34;;;;;;;88.23;34.83;;;;;;;;;;5039121;28;20280;-67
2023/12/06 00:13:00;;;;;;;94.13;38.40;;;;;;;;;;5039539;28;20183;-68
2023/12/06 00:15:27;;;;;;;88.97;37.60;;;;;;;;;;5041761;28;20189;-65
2023/12/06 00:17:53;;;;;;;103.80;39.83;;;;;;;;;;5044467;28;20234;-67
2023/12/06 00:20:19;;;;;;;128.67;42.53;;;;;;;;;;5039297;28;20171;-67
2023/12/06 00:22:45;;;;;;;129.10;43.17;;;;;;;;;;5038835;28;20527;-66
2023/12/06 00:25:11;;;;;;;133.90;46.23;;;;;;;;;;5037168;28;20424;-68
2023/12/06 00:27:38;;;;;;;119.37;40.20;;;;;;;;;;5038894;28;20186;-67
2023/12/06 00:30:04;;;;;;;121.37;43.27;;;;;;;;;;5038703;28;20183;-68
2023/12/06 00:32:30;;;;;;;116.83;41.97;;;;;;;;;;5037315;28;20578;-66
2023/12/06 00:34:56;;;;;;;125.33;41.40;;;;;;;;;;5038999;28;20185;-67
2023/12/06 00:37:23;;;;;;;121.50;44.47;;;;;;;;;;5038389;28;20210;-67
2023/12/06 00:39:49;;;;;;;120.80;43.37;;;;;;;;;;5036867;28;20193;-68
2023/12/06 00:42:15;;;;;;;111.57;44.20;;;;;;;;;;5037627;28;20274;-68
2023/12/06 00:44:41;;;;;;;118.60;46.97;;;;;;;;;;5038097;28;20179;-67
2023/12/06 00:47:07;;;;;;;117.43;45.13;;;;;;;;;;5037901;28;20182;-66
2023/12/06 00:49:33;;;;;;;126.10;47.13;;;;;;;;;;5037517;28;20179;-68
2023/12/06 00:51:59;;;;;;;136.87;59.30;;;;;;;;;;5037212;28;21041;-67
2023/12/06 00:54:25;;;;;;;140.67;52.60;;;;;;;;;;5036383;28;20211;-67
2023/12/06 00:56:51;;;;;;;129.50;49.83;;;;;;;;;;5037322;28;20260;-68
2023/12/06 00:59:17;;;;;;;131.53;47.73;;;;;;;;;;5037646;28;20183;-68
2023/12/06 01:01:43;;;;;;;123.93;44.37;;;;;;;;;;5037398;28;20199;-67
2023/12/06 01:04:09;;;;;;;144.73;48.83;;;;;;;;;;5037087;28;20186;-68
2023/12/06 01:06:35;;;;;;;150.13;54.63;;;;;;;;;;5036976;28;20179;-68
2023/12/06 01:09:02;;;;;;;161.20;55.70;;;;;;;;;;5037225;28;20182;-68
2023/12/06 01:11:28;;;;;;;156.57;52.70;;;;;;;;;;5037459;28;20187;-68
2023/12/06 01:13:54;;;;;;;162.90;55.80;;;;;;;;;;5037171;28;20583;-67
2023/12/06 01:16:20;;;;;;;153.00;54.47;;;;;;;;;;5036611;28;20241;-68
2023/12/06 01:18:46;;;;;;;166.70;59.50;;;;;;;;;;5037295;28;20210;-67
2023/12/06 01:21:12;;;;;;;179.23;63.93;;;;;;;;;;5037843;28;20565;-68
2023/12/06 01:23:38;;;;;;;167.37;63.73;;;;;;;;;;5037785;28;20221;-68
2023/12/06 01:26:05;;;;;;;148.13;50.73;;;;;;;;;;5036983;28;20293;-66
2023/12/06 01:28:31;;;;;;;161.10;59.80;;;;;;;;;;5035992;28;20190;-68
2023/12/06 01:30:56;;;;;;;158.50;53.87;;;;;;;;;;5037494;28;20199;-67
2023/12/06 01:33:22;;;;;;;165.30;57.73;;;;;;;;;;5036479;28;20572;-67
2023/12/06 01:35:48;;;;;;;161.63;54.73;;;;;;;;;;5037198;28;20554;-67
2023/12/06 01:38:14;;;;;;;168.03;59.00;;;;;;;;;;5036830;28;20280;-68
2023/12/06 01:40:40;;;;;;;183.23;61.57;;;;;;;;;;5037130;28;20175;-68
2023/12/06 01:43:07;;;;;;;172.97;55.20;;;;;;;;;;5037188;28;20175;-67
2023/12/06 01:45:32;;;;;;;149.53;51.90;;;;;;;;;;5040125;28;20263;-67
2023/12/06 01:47:59;;;;;;;157.83;58.23;;;;;;;;;;5043024;28;20413;-68
2023/12/06 01:50:25;;;;;;;148.10;52.07;;;;;;;;;;5042182;28;20186;-66
2023/12/06 01:52:52;;;;;;;153.67;57.07;;;;;;;;;;5039704;28;20222;-67
2023/12/06 01:55:18;;;;;;;152.33;57.43;;;;;;;;;;5039998;28;20180;-67
2023/12/06 01:57:45;;;;;;;146.77;55.17;;;;;;;;;;5042537;28;20478;-67
2023/12/06 02:00:11;;;;;;;161.17;57.90;;;;;;;;;;5041578;28;20175;-67
2023/12/06 02:02:37;;;;;;;153.27;58.90;;;;;;;;;;5037803;28;20195;-68
2023/12/06 02:05:03;;;;;;;152.30;55.53;;;;;;;;;;5036297;28;20250;-68
2023/12/06 02:07:29;;;;;;;155.00;61.13;;;;;;;;;;5035188;28;20707;-68
2023/12/06 02:09:55;;;;;;;147.40;53.93;;;;;;;;;;5034886;28;20275;-69
2023/12/06 02:12:21;;;;;;;150.13;56.70;;;;;;;;;;5037107;28;20230;-65
2023/12/06 02:14:47;;;;;;;138.67;53.63;;;;;;;;;;5036473;28;20215;-67
2023/12/06 02:17:14;;;;;;;142.90;54.33;;;;;;;;;;5036501;28;20207;-67
2023/12/06 02:19:40;;;;;;;147.70;56.57;;;;;;;;;;5034776;28;20261;-66
2023/12/06 02:22:07;;;;;;;137.20;55.73;;;;;;;;;;5035361;28;20453;-67
2023/12/06 02:24:34;;;;;;;131.20;54.60;;;;;;;;;;5034485;28;20179;-66
2023/12/06 02:27:00;;;;;;;139.63;55.23;;;;;;;;;;5035078;28;20191;-67
2023/12/06 02:29:26;;;;;;;133.23;59.97;;;;;;;;;;5036311;28;20285;-67
2023/12/06 02:31:52;;;;;;;138.80;57.23;;;;;;;;;;5034885;28;20298;-67
2023/12/06 02:34:20;;;;;;;132.83;55.33;;;;;;;;;;5034913;28;20418;-66
2023/12/06 02:36:49;;;;;;;116.33;51.63;;;;;;;;;;5036720;28;20210;-68
2023/12/06 02:39:16;;;;;;;114.03;51.37;;;;;;;;;;5035528;28;20513;-68
2023/12/06 02:41:42;;;;;;;115.40;51.67;;;;;;;;;;5037060;28;20254;-67
2023/12/06 02:44:08;;;;;;;111.00;48.17;;;;;;;;;;5036849;28;20263;-65
2023/12/06 02:46:35;;;;;;;114.77;49.03;;;;;;;;;;5036926;28;20246;-69
2023/12/06 02:49:01;;;;;;;110.80;49.90;;;;;;;;;;5035787;28;20175;-67
2023/12/06 02:51:27;;;;;;;107.53;48.73;;;;;;;;;;5034285;28;20469;-66
2023/12/06 02:53:53;;;;;;;113.30;51.37;;;;;;;;;;5034232;28;20418;-67
2023/12/06 02:56:19;;;;;;;110.87;51.57;;;;;;;;;;5033957;28;20242;-67
2023/12/06 02:58:45;;;;;;;106.83;52.30;;;;;;;;;;5035276;28;20230;-68
2023/12/06 03:01:11;;;;;;;110.80;51.37;;;;;;;;;;5035645;28;20195;-68
2023/12/06 03:03:37;;;;;;;103.50;51.33;;;;;;;;;;5033452;28;20638;-68
2023/12/06 03:06:03;;;;;;;110.00;51.50;;;;;;;;;;5034701;28;20179;-66
2023/12/06 03:08:29;;;;;;;100.77;49.67;;;;;;;;;;5035144;28;20286;-68
2023/12/06 03:10:55;;;;;;;100.07;48.80;;;;;;;;;;5033903;28;20230;-66
2023/12/06 03:13:21;;;;;;;98.07;49.37;;;;;;;;;;5035750;28;20190;-69
2023/12/06 03:15:47;;;;;;;104.37;50.57;;;;;;;;;;5033655;28;20194;-68
2023/12/06 03:18:13;;;;;;;95.50;49.70;;;;;;;;;;5035274;28;20293;-69
2023/12/06 03:20:39;;;;;;;89.60;48.33;;;;;;;;;;5035087;28;20171;-67
2023/12/06 03:23:05;;;;;;;96.70;50.10;;;;;;;;;;5033622;28;20553;-67
2023/12/06 03:25:32;;;;;;;83.57;46.37;;;;;;;;;;5035295;28;20183;-67
2023/12/06 03:27:58;;;;;;;94.97;48.30;;;;;;;;;;5034061;28;20684;-67
2023/12/06 03:30:24;;;;;;;92.20;48.77;;;;;;;;;;5033808;28;20421;-70
2023/12/06 03:32:51;;;;;;;86.63;46.70;;;;;;;;;;5034153;28;20802;-68
2023/12/06 03:35:17;;;;;;;90.57;48.37;;;;;;;;;;5035067;28;20183;-67
2023/12/06 03:37:43;;;;;;;87.40;49.10;;;;;;;;;;5034424;28;20207;-69
2023/12/06 03:40:09;;;;;;;82.80;47.57;;;;;;;;;;5033966;28;20241;-67
2023/12/06 03:42:35;;;;;;;86.97;46.93;;;;;;;;;;5034845;28;20248;-67
2023/12/06 03:45:01;;;;;;;85.60;47.20;;;;;;;;;;5033140;28;20266;-67
2023/12/06 03:47:27;;;;;;;79.10;45.17;;;;;;;;;;5034794;28;20187;-68
2023/12/06 03:49:54;;;;;;;81.00;45.73;;;;;;;;;;5033061;28;20225;-68
2023/12/06 03:52:21;;;;;;;83.83;47.93;;;;;;;;;;5034305;28;20218;-68
2023/12/06 03:54:47;;;;;;;80.50;47.63;;;;;;;;;;5034464;28;20556;-68
2023/12/06 03:57:13;;;;;;;71.87;40.80;;;;;;;;;;5035195;28;20207;-68
2023/12/06 03:59:39;;;;;;;82.00;47.77;;;;;;;;;;5034434;28;20182;-68
2023/12/06 04:02:05;;;;;;;74.43;44.30;;;;;;;;;;5034478;28;20194;-68
2023/12/06 04:04:31;;;;;;;79.43;45.60;;;;;;;;;;5034636;28;20233;-68
2023/12/06 04:06:57;;;;;;;79.43;46.50;;;;;;;;;;5034669;28;20711;-68
2023/12/06 04:09:23;;;;;;;76.23;44.33;;;;;;;;;;5033459;28;20513;-68
2023/12/06 04:11:49;;;;;;;79.07;44.57;;;;;;;;;;5034862;28;20202;-68
2023/12/06 04:14:15;;;;;;;73.00;42.20;;;;;;;;;;5034294;28;20179;-67
2023/12/06 04:16:41;;;;;;;75.93;45.03;;;;;;;;;;5033193;28;20418;-67
2023/12/06 04:19:07;;;;;;;77.77;46.43;;;;;;;;;;5034208;28;20178;-67
2023/12/06 04:21:33;;;;;;;77.80;45.97;;;;;;;;;;5032790;28;20260;-67
2023/12/06 04:23:59;;;;;;;72.97;43.07;;;;;;;;;;5034137;28;20225;-67
2023/12/06 04:26:25;;;;;;;77.20;44.17;;;;;;;;;;5034089;28;20182;-68
2023/12/06 04:28:51;;;;;;;74.60;43.30;;;;;;;;;;5032812;28;20538;-68
2023/12/06 04:31:17;;;;;;;73.93;43.43;;;;;;;;;;5033951;28;20670;-68
2023/12/06 04:33:43;;;;;;;73.53;44.30;;;;;;;;;;5034232;28;20187;-69
2023/12/06 04:36:09;;;;;;;69.17;43.03;;;;;;;;;;5033724;28;20179;-69
2023/12/06 04:38:35;;;;;;;71.60;42.50;;;;;;;;;;5034258;28;20218;-69
2023/12/06 04:41:01;;;;;;;72.17;42.30;;;;;;;;;;5034060;28;20621;-68
2023/12/06 04:43:26;;;;;;;75.87;43.43;;;;;;;;;;5034103;28;20250;-68
2023/12/06 04:45:53;;;;;;;71.27;41.70;;;;;;;;;;5037905;28;20637;-70
2023/12/06 04:48:18;;;;;;;75.40;43.83;;;;;;;;;;5037607;28;20179;-67
2023/12/06 04:50:44;;;;;;;75.70;42.30;;;;;;;;;;5038259;28;20548;-67
2023/12/06 04:53:10;;;;;;;85.10;44.53;;;;;;;;;;5038672;28;20207;-67
2023/12/06 04:55:36;;;;;;;79.70;44.30;;;;;;;;;;5038348;28;20186;-69
2023/12/06 04:58:02;;;;;;;78.97;43.57;;;;;;;;;;5038058;28;20207;-68
2023/12/06 05:00:28;;;;;;;79.93;43.80;;;;;;;;;;5038462;28;20187;-69
2023/12/06 05:02:54;;;;;;;79.60;43.83;;;;;;;;;;5036575;28;20560;-67
2023/12/06 05:05:21;;;;;;;80.47;44.43;;;;;;;;;;5037908;28;20207;-68
2023/12/06 05:07:47;;;;;;;78.03;42.87;;;;;;;;;;5038633;28;20175;-68
2023/12/06 05:10:13;;;;;;;74.37;39.07;;;;;;;;;;5036338;28;20653;-70
2023/12/06 05:12:39;;;;;;;76.37;41.27;;;;;;;;;;5036245;28;20298;-68
2023/12/06 05:15:06;;;;;;;76.70;43.03;;;;;;;;;;5036147;28;20714;-68
2023/12/06 05:17:32;;;;;;;74.67;40.50;;;;;;;;;;5037362;28;20198;-69
2023/12/06 05:19:58;;;;;;;79.70;42.43;;;;;;;;;;5037291;28;20186;-67
2023/12/06 05:22:24;;;;;;;79.50;42.50;;;;;;;;;;5036191;28;20202;-67
2023/12/06 05:24:50;;;;;;;74.50;41.73;;;;;;;;;;5037328;28;20224;-67
2023/12/06 05:27:16;;;;;;;79.83;41.33;;;;;;;;;;5037233;28;20258;-68
2023/12/06 05:29:44;;;;;;;74.30;42.87;;;;;;;;;;5037426;28;20184;-68
2023/12/06 05:32:10;;;;;;;79.10;42.33;;;;;;;;;;5036434;28;20209;-68
2023/12/06 05:34:36;;;;;;;76.00;41.37;;;;;;;;;;5036410;28;20179;-68
2023/12/06 05:37:02;;;;;;;70.27;39.23;;;;;;;;;;5035495;28;20206;-66
2023/12/06 05:39:31;;;;;;;75.23;40.87;;;;;;;;;;5035571;28;20175;-68
2023/12/06 05:41:57;;;;;;;71.13;40.63;;;;;;;;;;5036622;28;20191;-68
2023/12/06 05:44:22;;;;;;;74.63;41.97;;;;;;;;;;5034641;28;20175;-67
2023/12/06 05:46:48;;;;;;;74.80;40.93;;;;;;;;;;5034936;28;20171;-67
2023/12/06 05:49:16;;;;;;;78.10;43.10;;;;;;;;;;5036737;28;20179;-67
2023/12/06 05:51:42;;;;;;;77.10;42.80;;;;;;;;;;5036128;28;20207;-68
2023/12/06 05:54:08;;;;;;;77.83;42.97;;;;;;;;;;5036619;28;20179;-67
2023/12/06 05:56:34;;;;;;;67.50;36.60;;;;;;;;;;5034040;28;20246;-68
2023/12/06 05:59:00;;;;;;;68.57;39.37;;;;;;;;;;5036173;28;20567;-68
2023/12/06 06:01:26;;;;;;;71.97;40.43;;;;;;;;;;5035096;28;20207;-70
2023/12/06 06:03:52;;;;;;;66.70;41.03;;;;;;;;;;5035252;28;20241;-68
2023/12/06 06:06:18;;;;;;;69.00;41.63;;;;;;;;;;5034607;28;20183;-68
2023/12/06 06:08:44;;;;;;;66.07;41.40;;;;;;;;;;5034691;28;20193;-67
2023/12/06 06:11:10;;;;;;;73.70;42.00;;;;;;;;;;5036383;28;20203;-66
2023/12/06 06:13:36;;;;;;;70.43;42.57;;;;;;;;;;5034905;28;20175;-65
2023/12/06 06:16:02;;;;;;;68.33;40.40;;;;;;;;;;5034992;28;20603;-65
2023/12/06 06:18:28;;;;;;;71.73;42.80;;;;;;;;;;5036628;28;20392;-66
2023/12/06 06:20:54;;;;;;;68.83;40.87;;;;;;;;;;5034999;28;20288;-67
2023/12/06 06:23:20;;;;;;;72.73;42.87;;;;;;;;;;5034937;28;20182;-66
2023/12/06 06:25:46;;;;;;;76.27;44.73;;;;;;;;;;5036131;28;20175;-67
2023/12/06 06:28:12;;;;;;;71.93;43.10;;;;;;;;;;5036226;28;20175;-65
2023/12/06 06:30:38;;;;;;;80.33;43.80;;;;;;;;;;5036325;28;20237;-64
2023/12/06 06:33:04;;;;;;;73.27;41.03;;;;;;;;;;5036681;28;20176;-64
2023/12/06 06:35:30;;;;;;;63.37;39.47;;;;;;;;;;5034987;28;20210;-65
2023/12/06 06:37:56;;;;;;;66.90;40.67;;;;;;;;;;5035048;28;20198;-65
2023/12/06 06:40:22;;;;;;;69.87;42.20;;;;;;;;;;5036052;28;20179;-65
2023/12/06 06:42:48;;;;;;;73.07;43.67;;;;;;;;;;5036235;28;20278;-66
2023/12/06 06:45:14;;;;;;;69.90;43.37;;;;;;;;;;5035907;28;20253;-66
2023/12/06 06:47:41;;;;;;;69.60;42.67;;;;;;;;;;5036293;28;20552;-66
2023/12/06 06:50:07;;;;;;;69.83;42.17;;;;;;;;;;5035553;28;20266;-66
2023/12/06 06:52:34;;;;;;;68.47;42.53;;;;;;;;;;5050305;22;20227;-69
2023/12/06 06:55:00;;;;;;;70.50;42.80;;;;;;;;;;5034768;28;20711;-69
2023/12/06 06:57:26;;;;;;;77.27;44.83;;;;;;;;;;5034564;28;20577;-69
2023/12/06 06:59:52;;;;;;;67.00;44.60;;;;;;;;;;5034709;28;20186;-69
2023/12/06 07:02:18;;;;;;;72.10;43.87;;;;;;;;;;5034511;28;20588;-69
2023/12/06 07:04:44;;;;;;;66.43;43.10;;;;;;;;;;5017008;28;20186;-69
2023/12/06 07:07:10;;;;;;;71.17;45.87;;;;;;;;;;5034194;28;20282;-69
2023/12/06 07:09:36;;;;;;;69.23;42.83;;;;;;;;;;5034478;28;20639;-69
2023/12/06 07:12:03;;;;;;;66.73;43.43;;;;;;;;;;5034192;28;20209;-69
2023/12/06 07:14:29;;;;;;;63.23;43.07;;;;;;;;;;5016785;28;20662;-68
2023/12/06 07:16:56;;;;;;;66.33;43.57;;;;;;;;;;5016645;28;20645;-68
2023/12/06 07:19:23;;;;;;;64.90;42.80;;;;;;;;;;5016697;28;20179;-68
2023/12/06 07:21:49;;;;;;;62.93;41.23;;;;;;;;;;5016752;28;20262;-68
2023/12/06 07:24:15;;;;;;;59.17;39.87;;;;;;;;;;5034384;28;20175;-68
2023/12/06 07:26:42;;;;;;;67.30;44.00;;;;;;;;;;5034504;28;20179;-68
2023/12/06 07:29:08;;;;;;;59.87;40.30;;;;;;;;;;5034681;28;20171;-68
2023/12/06 07:31:34;;;;;;;61.10;40.83;;;;;;;;;;5016447;28;20322;-68
2023/12/06 07:34:00;;;;;;;63.03;41.33;;;;;;;;;;5016441;28;20681;-68
2023/12/06 07:36:26;;;;;;;60.30;41.63;;;;;;;;;;5034148;28;20179;-68
2023/12/06 07:38:52;;;;;;;58.57;37.57;;;;;;;;;;5033907;28;20720;-68
2023/12/06 07:41:18;;;;;;;66.57;43.87;;;;;;;;;;5033885;28;20591;-68
2023/12/06 07:43:44;;;;;;;61.37;40.07;;;;;;;;;;5033758;28;20546;-68
2023/12/06 07:46:10;;;;;;;57.73;38.47;;;;;;;;;;5034747;28;20179;-68
2023/12/06 07:48:36;;;;;;;59.40;37.67;;;;;;;;;;5033977;28;20178;-68
2023/12/06 07:51:02;;;;;;;51.20;37.40;;;;;;;;;;5016301;28;20653;-68
2023/12/06 07:53:28;;;;;;;56.83;37.67;;;;;;;;;;5034071;28;20213;-68
2023/12/06 07:55:55;;;;;;;55.27;36.87;;;;;;;;;;5033867;28;20543;-68
2023/12/06 07:58:22;;;;;;;57.50;36.70;;;;;;;;;;5034469;28;20203;-68
2023/12/06 08:00:48;;;;;;;52.97;34.20;;;;;;;;;;5016205;28;20187;-68
2023/12/06 08:03:14;;;;;;;56.87;38.93;;;;;;;;;;5033659;28;20221;-68
2023/12/06 08:05:40;;;;;;;54.57;37.40;;;;;;;;;;5016603;28;20183;-68
2023/12/06 08:08:06;;;;;;;51.60;35.20;;;;;;;;;;5034298;28;20591;-68
2023/12/06 08:10:33;;;;;;;53.90;37.10;;;;;;;;;;5034558;28;20229;-68
2023/12/06 08:12:59;;;;;;;50.97;36.57;;;;;;;;;;5019404;28;20539;-69
2023/12/06 08:15:26;;;;;;;48.67;35.70;;;;;;;;;;5042647;28;20184;-68
2023/12/06 08:17:52;;;;;;;46.93;35.43;;;;;;;;;;5043966;28;20203;-69
2023/12/06 08:20:18;;;;;;;45.80;34.67;;;;;;;;;;5043334;28;20264;-68
2023/12/06 08:22:44;;;;;;;41.80;31.10;;;;;;;;;;5027405;28;20198;-68
2023/12/06 08:25:11;;;;;;;47.07;32.73;;;;;;;;;;5038747;28;20176;-68
2023/12/06 08:27:38;;;;;;;43.27;33.57;;;;;;;;;;5021909;28;20182;-70
2023/12/06 08:30:06;;;;;;;46.60;34.37;;;;;;;;;;5045575;28;20202;-69
2023/12/06 08:32:32;;;;;;;44.67;31.87;;;;;;;;;;5031677;28;20261;-69
2023/12/06 08:34:58;;;;;;;44.03;33.67;;;;;;;;;;5029205;28;20187;-69
2023/12/06 08:37:25;;;;;;;47.27;35.00;;;;;;;;;;5039818;28;20203;-69
2023/12/06 08:39:51;;;;;;;48.47;34.57;;;;;;;;;;5037504;28;20172;-69
2023/12/06 08:42:17;;;;;;;46.27;33.23;;;;;;;;;;5038419;28;20195;-70
2023/12/06 08:44:44;;;;;;;45.23;32.93;;;;;;;;;;5039177;28;20245;-69
2023/12/06 08:47:10;;;;;;;46.53;33.97;;;;;;;;;;5021062;28;20564;-69
2023/12/06 08:49:37;;;;;;;44.57;33.03;;;;;;;;;;5038406;28;20237;-70
2023/12/06 08:52:03;;;;;;;45.47;32.77;;;;;;;;;;5037249;28;20290;-69
2023/12/06 08:54:29;;;;;;;43.97;32.73;;;;;;;;;;5038401;28;20203;-69
2023/12/06 08:56:55;;;;;;;45.93;34.93;;;;;;;;;;5037156;28;20195;-69
2023/12/06 08:59:21;;;;;;;44.00;33.60;;;;;;;;;;5019227;28;20187;-70
2023/12/06 09:01:46;;;;;;;47.23;33.90;;;;;;;;;;5037337;28;20185;-69
2023/12/06 09:04:12;;;;;;;44.53;33.30;;;;;;;;;;5037000;28;20178;-69
2023/12/06 09:06:38;;;;;;;41.73;32.30;;;;;;;;;;5036374;28;20180;-68
2023/12/06 09:09:05;;;;;;;46.63;34.13;;;;;;;;;;5019413;28;20179;-69
2023/12/06 09:11:31;;;;;;;48.60;31.90;;;;;;;;;;5036446;28;20211;-69
2023/12/06 09:13:57;;;;;;;42.00;31.73;;;;;;;;;;5036533;28;20195;-70
2023/12/06 09:16:23;;;;;;;47.03;33.33;;;;;;;;;;5036958;28;20258;-70
2023/12/06 09:18:49;;;;;;;47.47;35.40;;;;;;;;;;5036946;28;20566;-69
2023/12/06 09:21:15;;;;;;;53.40;35.70;;;;;;;;;;5019378;28;20237;-69
2023/12/06 09:23:41;;;;;;;47.10;33.53;;;;;;;;;;5036886;28;20195;-69
2023/12/06 09:26:09;;;;;;;49.83;34.17;;;;;;;;;;5037404;28;20645;-69
2023/12/06 09:28:35;;;;;;;43.37;33.43;;;;;;;;;;5020645;28;20274;-70
2023/12/06 09:31:01;;;;;;;46.33;32.93;;;;;;;;;;5037285;28;20211;-69
2023/12/06 09:33:27;;;;;;;44.07;32.57;;;;;;;;;;5036970;28;20199;-69
2023/12/06 09:35:53;;;;;;;40.53;30.93;;;;;;;;;;5019085;28;20197;-69
2023/12/06 09:38:19;;;;;;;47.73;31.50;;;;;;;;;;5036033;28;20202;-69
2023/12/06 09:40:45;;;;;;;42.37;31.77;;;;;;;;;;5041098;28;20175;-70
2023/12/06 09:43:11;;;;;;;45.27;29.97;;;;;;;;;;5018692;28;20203;-70
2023/12/06 09:45:37;;;;;;;46.63;32.57;;;;;;;;;;5018510;28;20195;-69
2023/12/06 09:48:04;;;;;;;41.37;31.33;;;;;;;;;;5036902;28;20183;-70
2023/12/06 09:50:30;;;;;;;43.83;33.23;;;;;;;;;;5036058;28;20704;-69
2023/12/06 09:52:56;;;;;;;45.47;32.77;;;;;;;;;;5017329;28;20261;-69
2023/12/06 09:55:23;;;;;;;41.57;32.00;;;;;;;;;;5035512;28;20266;-69
2023/12/06 09:57:51;;;;;;;44.97;31.93;;;;;;;;;;5034832;28;20234;-70
2023/12/06 10:00:17;;;;;;;40.40;30.63;;;;;;;;;;5017279;28;20179;-70
2023/12/06 10:02:53;;;;;;;43.70;29.43;;;;;;;;;;5034735;28;20245;-69
2023/12/06 10:05:19;;;;;;;40.27;29.87;;;;;;;;;;5034936;28;20250;-70
2023/12/06 10:07:46;;;;;;;38.10;28.60;;;;;;;;;;5017335;28;20214;-70
2023/12/06 10:10:19;;;;;;;37.10;29.70;;;;;;;;;;5017243;28;20191;-69
2023/12/06 10:12:49;;;;;;;38.90;29.10;;;;;;;;;;5035261;28;20570;-70
2023/12/06 10:15:15;;;;;;;39.30;29.93;;;;;;;;;;5034915;28;20235;-70
2023/12/06 10:17:42;;;;;;;57.70;40.97;;;;;;;;;;5017036;28;20210;-70
2023/12/06 10:20:08;;;;;;;47.07;36.40;;;;;;;;;;5034527;28;20183;-69
2023/12/06 10:22:34;;;;;;;39.40;32.10;;;;;;;;;;5034555;28;20195;-70
2023/12/06 10:25:00;;;;;;;38.30;28.17;;;;;;;;;;5034601;28;20210;-70
2023/12/06 10:27:27;;;;;;;35.50;26.33;;;;;;;;;;5016661;28;20183;-70
2023/12/06 10:29:53;;;;;;;42.90;28.03;;;;;;;;;;5016859;28;20562;-69
2023/12/06 10:32:19;;;;;;;38.23;26.87;;;;;;;;;;5017000;28;20203;-70
2023/12/06 10:34:46;;;;;;;36.10;26.17;;;;;;;;;;5035217;28;20177;-71
2023/12/06 10:37:13;;;;;;;31.23;24.20;;;;;;;;;;5034107;28;20202;-69
2023/12/06 10:39:41;;;;;;;34.53;26.00;;;;;;;;;;5033916;28;20645;-69
2023/12/06 10:42:08;;;;;;;37.33;25.10;;;;;;;;;;5033326;28;20203;-69
2023/12/06 10:44:34;;;;;;;30.57;22.60;;;;;;;;;;5016565;28;20176;-69
2023/12/06 10:47:01;;;;;;;32.10;24.67;;;;;;;;;;5034006;28;20240;-69
2023/12/06 10:49:28;;;;;;;31.63;24.33;;;;;;;;;;5016162;28;20270;-69
2023/12/06 10:51:54;;;;;;;34.27;24.07;;;;;;;;;;5033673;28;20183;-69
2023/12/06 10:54:20;;;;;;;29.80;23.53;;;;;;;;;;5033711;28;20183;-69
2023/12/06 10:56:47;;;;;;;28.37;21.57;;;;;;;;;;5034487;28;20652;-69
2023/12/06 10:59:13;;;;;;;27.83;21.27;;;;;;;;;;5034308;28;20207;-69
2023/12/06 11:01:39;;;;;;;28.40;20.83;;;;;;;;;;5034026;28;20545;-69
2023/12/06 11:04:06;;;;;;;31.87;23.13;;;;;;;;;;5016045;28;20245;-70
2023/12/06 11:06:32;;;;;;;29.93;22.20;;;;;;;;;;5016129;28;20607;-70
2023/12/06 11:09:14;;;;;;;32.53;22.03;;;;;;;;;;5015925;28;20179;-69
2023/12/06 11:11:59;;;;;;;32.67;20.93;;;;;;;;;;5034089;28;20162;-69
2023/12/06 11:14:32;;;;;;;30.17;20.50;;;;;;;;;;5034081;28;20179;-69
2023/12/06 11:17:06;;;;;;;34.60;27.43;;;;;;;;;;5033907;28;20163;-68
2023/12/06 11:19:34;;;;;;;34.50;23.73;;;;;;;;;;5016093;28;20183;-69
2023/12/06 11:22:03;;;;;;;36.70;22.87;;;;;;;;;;5015752;28;20226;-69
2023/12/06 11:24:29;;;;;;;40.60;25.90;;;;;;;;;;5034135;28;20198;-69
2023/12/06 11:26:55;;;;;;;32.53;24.63;;;;;;;;;;5033546;28;20637;-69
2023/12/06 11:29:21;;;;;;;37.87;23.97;;;;;;;;;;5033352;28;20250;-70
2023/12/06 11:31:52;;;;;;;34.70;23.63;;;;;;;;;;5015260;28;20179;-69
2023/12/06 11:34:18;;;;;;;30.67;24.03;;;;;;;;;;5033479;28;20164;-70
2023/12/06 11:36:44;;;;;;;36.47;26.00;;;;;;;;;;5015698;28;20183;-71
2023/12/06 11:39:17;;;;;;;33.07;25.67;;;;;;;;;;5033593;28;20207;-69
2023/12/06 11:41:49;;;;;;;36.23;24.27;;;;;;;;;;5033277;28;20229;-71
2023/12/06 11:44:16;;;;;;;30.17;23.37;;;;;;;;;;5034380;28;20183;-69
2023/12/06 11:46:49;;;;;;;34.47;24.10;;;;;;;;;;5033894;28;20183;-71
2023/12/06 11:49:15;;;;;;;31.57;23.53;;;;;;;;;;5016050;28;20175;-69
2023/12/06 11:51:41;;;;;;;33.50;24.13;;;;;;;;;;5033002;28;20249;-69
2023/12/06 11:54:07;;;;;;;28.40;22.87;;;;;;;;;;5035331;28;20225;-71
2023/12/06 11:56:33;;;;;;;28.83;22.53;;;;;;;;;;5019482;28;20756;-69
2023/12/06 11:59:02;;;;;;;31.67;22.43;;;;;;;;;;5037101;28;20282;-69
2023/12/06 12:01:29;;;;;;;27.10;21.40;;;;;;;;;;5037216;28;20190;-69
2023/12/06 12:03:55;;;;;;;31.90;21.83;;;;;;;;;;5019702;28;20286;-70
2023/12/06 12:06:23;;;;;;;30.90;22.33;;;;;;;;;;5019942;28;20592;-69
2023/12/06 12:08:49;;;;;;;31.27;22.80;;;;;;;;;;5019595;28;20190;-69
2023/12/06 12:11:16;;;;;;;25.40;19.70;;;;;;;;;;5036942;28;20179;-69
2023/12/06 12:13:42;;;;;;;29.97;22.30;;;;;;;;;;5037122;28;20199;-69
2023/12/06 12:16:08;;;;;;;30.77;21.80;;;;;;;;;;5037355;28;20258;-69
2023/12/06 12:18:35;;;;;;;25.03;20.87;;;;;;;;;;5019273;28;20211;-69
2023/12/06 12:21:06;;;;;;;29.67;24.87;;;;;;;;;;5037226;28;20175;-69
2023/12/06 12:23:32;;;;;;;34.93;23.83;;;;;;;;;;5019233;28;20281;-69
2023/12/06 12:25:58;;;;;;;26.60;20.47;;;;;;;;;;5019001;28;20673;-69
2023/12/06 12:28:24;;;;;;;25.67;20.03;;;;;;;;;;5019007;28;20183;-69
2023/12/06 12:30:55;;;;;;;23.30;17.97;;;;;;;;;;5037527;28;20202;-69
2023/12/06 12:33:21;;;;;;;21.37;17.47;;;;;;;;;;5036926;28;20199;-69
2023/12/06 12:35:47;;;;;;;24.27;18.63;;;;;;;;;;5036399;28;20211;-69
2023/12/06 12:38:14;;;;;;;23.30;17.60;;;;;;;;;;5018321;28;20218;-69
2023/12/06 12:40:41;;;;;;;25.77;19.10;;;;;;;;;;5018736;28;20191;-69
2023/12/06 12:43:08;;;;;;;23.00;17.57;;;;;;;;;;5036358;28;20191;-70
2023/12/06 12:45:34;;;;;;;25.03;18.77;;;;;;;;;;5019802;28;20668;-69
2023/12/06 12:48:00;;;;;;;21.77;17.37;;;;;;;;;;5037917;28;20186;-69
2023/12/06 12:50:26;;;;;;;21.53;16.33;;;;;;;;;;5019546;28;20273;-70
2023/12/06 12:52:56;;;;;;;22.27;17.33;;;;;;;;;;5019131;28;20299;-69
2023/12/06 12:55:22;;;;;;;22.20;16.87;;;;;;;;;;5019792;28;20186;-69
2023/12/06 12:57:51;;;;;;;29.10;19.13;;;;;;;;;;5019437;28;20211;-69
2023/12/06 13:00:21;;;;;;;22.67;17.27;;;;;;;;;;5019528;28;20645;-68
2023/12/06 13:02:48;;;;;;;25.47;18.17;;;;;;;;;;5019568;28;20743;-69
2023/12/06 13:05:14;;;;;;;25.87;20.50;;;;;;;;;;5037055;28;20273;-69
2023/12/06 13:07:40;;;;;;;22.33;17.93;;;;;;;;;;5036729;28;20678;-69
2023/12/06 13:10:08;;;;;;;17.93;15.97;;;;;;;;;;5019550;28;20187;-70
2023/12/06 13:12:34;;;;;;;19.57;16.03;;;;;;;;;;5037059;28;20195;-69
2023/12/06 13:15:00;;;;;;;21.43;16.13;;;;;;;;;;5018917;28;20195;-69
2023/12/06 13:17:27;;;;;;;21.23;16.10;;;;;;;;;;5036932;28;20707;-69
2023/12/06 13:19:54;;;;;;;21.03;16.27;;;;;;;;;;5036518;28;20225;-69
2023/12/06 13:22:21;;;;;;;22.50;16.00;;;;;;;;;;5018741;28;20206;-69
2023/12/06 13:24:47;;;;;;;27.37;15.43;;;;;;;;;;5036679;28;20178;-69
2023/12/06 13:27:13;;;;;;;29.17;20.63;;;;;;;;;;5036452;28;20649;-69
2023/12/06 13:29:39;;;;;;;19.23;15.63;;;;;;;;;;5036993;28;20186;-69
2023/12/06 13:32:05;;;;;;;19.83;14.73;;;;;;;;;;5018861;28;20199;-69
2023/12/06 13:34:31;;;;;;;24.80;15.30;;;;;;;;;;5017425;28;20270;-69
2023/12/06 13:36:57;;;;;;;19.93;13.90;;;;;;;;;;5017313;28;20210;-69
2023/12/06 13:39:26;;;;;;;21.03;14.17;;;;;;;;;;5017345;28;20233;-69
2023/12/06 13:41:53;;;;;;;25.57;13.23;;;;;;;;;;5035305;28;20174;-69
2023/12/06 13:44:19;;;;;;;18.87;13.70;;;;;;;;;;5017736;28;20179;-69
2023/12/06 13:46:45;;;;;;;13.23;10.37;;;;;;;;;;5053990;23;20226;-68
2023/12/06 13:49:11;;;;;;;18.17;12.13;;;;;;;;;;5039289;28;20210;-69
2023/12/06 13:51:38;;;;;;;17.97;12.60;;;;;;;;;;5057160;28;20178;-69
2023/12/06 13:54:04;;;;;;;19.77;14.73;;;;;;;;;;5039768;28;20194;-69
2023/12/06 13:56:30;;;;;;;21.70;14.63;;;;;;;;;;5056661;28;20202;-69
2023/12/06 13:58:56;;;;;;;21.10;13.47;;;;;;;;;;5039344;28;20198;-69
2023/12/06 14:01:22;;;;;;;19.10;13.40;;;;;;;;;;5057270;28;20543;-69
2023/12/06 14:03:48;;;;;;;20.40;14.23;;;;;;;;;;5057543;28;20182;-69
2023/12/06 14:06:14;;;;;;;22.83;15.70;;;;;;;;;;5039139;28;20194;-69
2023/12/06 14:08:40;;;;;;;21.77;15.60;;;;;;;;;;5039142;28;20221;-68